createdAt,value
2022-12-01T00:01:35.822Z,1.85
2022-12-01T00:04:38.684Z,1.79
2022-12-01T00:07:41.496Z,1.79
2022-12-01T00:10:44.604Z,1.78
2022-12-01T00:13:47.084Z,1.80
2022-12-01T00:16:50.203Z,1.82
2022-12-01T00:19:52.848Z,1.84
2022-12-01T00:22:56.059Z,1.83
2022-12-01T00:26:05.382Z,1.82
2022-12-01T00:29:08.451Z,1.81
2022-12-01T00:32:11.248Z,1.79
2022-12-01T00:35:14.687Z,1.72
2022-12-01T00:38:17.282Z,1.66
2022-12-01T00:41:21.193Z,1.64
2022-12-01T00:44:23.785Z,1.63
2022-12-01T00:47:26.768Z,1.57
2022-12-01T00:50:29.473Z,1.45
2022-12-01T00:53:32.380Z,1.42
2022-12-01T00:56:34.930Z,1.38
2022-12-01T00:59:38.067Z,1.39
2022-12-01T01:02:40.864Z,1.33
2022-12-01T01:05:44.421Z,1.34
2022-12-01T01:08:47.256Z,1.30
2022-12-01T01:11:50.512Z,1.30
2022-12-01T01:14:52.996Z,1.27
2022-12-01T01:17:55.849Z,1.20
2022-12-01T01:21:00.363Z,1.11
2022-12-01T01:24:03.376Z,0.98
2022-12-01T01:27:06.258Z,0.88
2022-12-01T01:30:09.638Z,0.80
2022-12-01T01:33:12.538Z,0.84
2022-12-01T01:36:16.465Z,0.79
2022-12-01T01:39:19.083Z,0.79
2022-12-01T01:42:22.490Z,0.76
2022-12-01T01:45:29.002Z,0.69
2022-12-01T01:48:33.016Z,0.71
2022-12-01T01:51:38.447Z,0.62
2022-12-01T01:54:43.508Z,0.51
2022-12-01T01:57:46.337Z,0.45
2022-12-01T02:00:49.518Z,0.48
2022-12-01T02:03:54.844Z,0.42
2022-12-01T02:06:57.689Z,0.32
2022-12-01T02:10:00.728Z,0.36
2022-12-01T02:13:24.813Z,0.27
2022-12-01T02:16:51.203Z,0.23
2022-12-01T02:20:12.308Z,0.28
2022-12-01T02:23:18.454Z,0.28
2022-12-01T02:26:36.800Z,0.23
2022-12-01T02:29:58.140Z,0.12
2022-12-01T02:33:08.398Z,0.06
2022-12-01T02:36:56.608Z,-0.02
2022-12-01T02:40:24.761Z,-0.13
2022-12-01T02:43:38.119Z,-0.19
2022-12-01T02:46:52.852Z,-0.18
2022-12-01T02:49:57.620Z,-0.18
2022-12-01T02:53:01.536Z,-0.23
2022-12-01T02:56:07.960Z,-0.20
2022-12-01T02:59:12.263Z,-0.22
2022-12-01T03:02:29.361Z,-0.25
2022-12-01T03:05:41.533Z,-0.24
2022-12-01T03:08:50.656Z,-0.30
2022-12-01T03:12:28.892Z,-0.35
2022-12-01T03:15:38.091Z,-0.42
2022-12-01T03:18:51.310Z,-0.43
2022-12-01T03:22:02.098Z,-0.43
2022-12-01T03:25:05.146Z,-0.44
2022-12-01T03:28:24.858Z,-0.43
2022-12-01T03:31:32.278Z,-0.44
2022-12-01T03:34:49.925Z,-0.46
2022-12-01T03:38:13.430Z,-0.47
2022-12-01T03:41:20.307Z,-0.46
2022-12-01T03:44:26.190Z,-0.49
2022-12-01T03:47:32.399Z,-0.47
2022-12-01T03:50:45.285Z,-0.46
2022-12-01T03:53:59.171Z,-0.46
2022-12-01T03:57:06.194Z,-0.49
2022-12-01T04:00:11.471Z,-0.52
2022-12-01T04:03:19.670Z,-0.55
2022-12-01T04:06:22.707Z,-0.60
2022-12-01T04:09:25.282Z,-0.64
2022-12-01T04:12:31.153Z,-0.70
2022-12-01T04:15:33.667Z,-0.71
2022-12-01T04:18:36.711Z,-0.78
2022-12-01T04:21:39.199Z,-1.06
2022-12-01T04:24:42.133Z,-0.85
2022-12-01T04:27:44.759Z,-0.83
2022-12-01T04:30:47.857Z,-0.82
2022-12-01T04:33:50.478Z,-0.82
2022-12-01T04:36:53.301Z,-0.86
2022-12-01T04:39:55.889Z,-0.89
2022-12-01T04:42:58.871Z,-0.94
2022-12-01T04:46:01.633Z,-0.99
2022-12-01T04:49:05.249Z,-1.01
2022-12-01T04:52:07.796Z,-1.05
2022-12-01T04:55:10.750Z,-1.07
2022-12-01T04:58:13.265Z,-1.16
2022-12-01T05:01:18.211Z,-1.06
2022-12-01T05:04:20.860Z,-1.08
2022-12-01T05:07:23.943Z,-1.04
2022-12-01T05:10:26.514Z,-0.99
2022-12-01T05:13:30.367Z,-1.11
2022-12-01T05:16:33.827Z,-0.99
2022-12-01T05:20:02.514Z,-1.00
2022-12-01T05:23:06.391Z,-0.99
2022-12-01T05:26:12.968Z,-0.99
2022-12-01T05:29:15.529Z,-1.00
2022-12-01T05:32:18.326Z,-1.02
2022-12-01T05:35:21.257Z,-1.02
2022-12-01T05:38:24.671Z,-1.03
2022-12-01T05:41:27.370Z,-1.03
2022-12-01T05:44:30.850Z,-1.00
2022-12-01T05:47:34.386Z,-0.98
2022-12-01T05:50:39.250Z,-0.94
2022-12-01T05:53:42.920Z,-1.00
2022-12-01T05:56:45.695Z,-0.93
2022-12-01T05:59:48.432Z,-0.92
2022-12-01T06:02:51.549Z,-0.90
2022-12-01T06:05:54.489Z,-0.91
2022-12-01T06:08:57.156Z,-0.88
2022-12-01T06:11:59.986Z,-0.86
2022-12-01T06:15:02.995Z,-0.92
2022-12-01T06:18:05.999Z,-0.84
2022-12-01T06:21:08.551Z,-0.82
2022-12-01T06:24:11.552Z,-0.82
2022-12-01T06:27:14.109Z,-0.79
2022-12-01T06:30:17.309Z,-0.77
2022-12-01T06:33:19.746Z,-0.76
2022-12-01T06:36:22.521Z,-0.74
2022-12-01T06:39:25.025Z,-0.70
2022-12-01T06:42:30.654Z,-0.67
2022-12-01T06:45:33.233Z,-0.64
2022-12-01T06:48:36.069Z,0.23
2022-12-01T06:51:39.092Z,0.72
2022-12-01T06:54:41.894Z,0.37
2022-12-01T06:57:44.692Z,0.17
2022-12-01T07:00:52.091Z,0.05
2022-12-01T07:03:55.143Z,-0.03
2022-12-01T07:06:57.979Z,-0.09
2022-12-01T07:10:00.643Z,-0.11
2022-12-01T07:13:03.502Z,-0.12
2022-12-01T07:16:07.154Z,-0.14
2022-12-01T07:19:09.968Z,-0.12
2022-12-01T07:22:12.430Z,-0.11
2022-12-01T07:25:15.297Z,-0.10
2022-12-01T07:28:17.750Z,-0.05
2022-12-01T07:31:20.657Z,0.02
2022-12-01T07:34:23.457Z,0.08
2022-12-01T07:37:26.307Z,0.12
2022-12-01T07:40:28.959Z,0.10
2022-12-01T07:43:32.905Z,0.21
2022-12-01T07:46:35.515Z,0.26
2022-12-01T07:49:38.535Z,0.32
2022-12-01T07:52:41.104Z,0.40
2022-12-01T07:55:49.335Z,0.50
2022-12-01T07:58:51.929Z,0.61
2022-12-01T08:01:54.807Z,0.76
2022-12-01T08:04:57.694Z,0.88
2022-12-01T08:08:00.327Z,0.98
2022-12-01T08:11:06.494Z,1.11
2022-12-01T08:14:09.165Z,1.24
2022-12-01T08:17:11.941Z,1.40
2022-12-01T08:20:19.559Z,1.51
2022-12-01T08:23:25.206Z,1.62
2022-12-01T08:26:28.715Z,3.32
2022-12-01T08:29:31.487Z,3.05
2022-12-01T08:32:33.905Z,2.80
2022-12-01T08:35:37.065Z,2.62
2022-12-01T08:38:39.569Z,2.50
2022-12-01T08:41:42.313Z,2.54
2022-12-01T08:44:44.909Z,2.58
2022-12-01T08:47:47.837Z,2.60
2022-12-01T08:50:50.432Z,2.75
2022-12-01T08:53:55.200Z,2.83
2022-12-01T08:56:57.620Z,2.95
2022-12-01T09:00:00.408Z,3.05
2022-12-01T09:03:02.981Z,3.17
2022-12-01T09:06:10.232Z,3.26
2022-12-01T09:09:17.789Z,3.27
2022-12-01T09:12:20.793Z,3.48
2022-12-01T09:15:23.320Z,3.48
2022-12-01T09:18:26.313Z,3.75
2022-12-01T09:21:30.848Z,3.95
2022-12-01T09:24:34.094Z,4.19
2022-12-01T09:27:36.685Z,4.32
2022-12-01T09:30:39.661Z,4.43
2022-12-01T09:33:42.346Z,4.78
2022-12-01T09:36:46.050Z,5.04
2022-12-01T09:39:48.843Z,5.11
2022-12-01T09:42:51.977Z,5.13
2022-12-01T09:46:07.679Z,5.26
2022-12-01T09:49:22.846Z,5.32
2022-12-01T09:52:28.057Z,5.34
2022-12-01T09:55:32.167Z,5.71
2022-12-01T09:58:34.878Z,6.00
2022-12-01T10:01:39.434Z,6.14
2022-12-01T10:04:44.980Z,6.38
2022-12-01T10:07:50.113Z,6.20
2022-12-01T10:10:56.291Z,6.69
2022-12-01T10:13:59.867Z,6.97
2022-12-01T10:17:30.690Z,6.97
2022-12-01T10:21:05.574Z,6.92
2022-12-01T10:24:26.977Z,6.82
2022-12-01T10:28:08.681Z,6.94
2022-12-01T10:31:36.469Z,7.16
2022-12-01T10:34:41.766Z,7.44
2022-12-01T10:37:45.566Z,7.48
2022-12-01T10:40:50.753Z,7.41
2022-12-01T10:43:59.517Z,7.61
2022-12-01T10:47:02.468Z,7.71
2022-12-01T10:50:06.050Z,7.99
2022-12-01T10:53:23.828Z,7.86
2022-12-01T10:56:26.671Z,8.21
2022-12-01T10:59:32.168Z,8.35
2022-12-01T11:02:35.409Z,8.44
2022-12-01T11:05:41.152Z,8.61
2022-12-01T11:08:47.149Z,8.95
2022-12-01T11:12:01.126Z,8.86
2022-12-01T11:15:05.308Z,9.28
2022-12-01T11:18:27.991Z,9.42
2022-12-01T11:21:30.987Z,9.42
2022-12-01T11:24:44.276Z,9.51
2022-12-01T11:27:52.796Z,9.67
2022-12-01T11:31:03.014Z,9.14
2022-12-01T11:34:06.335Z,9.07
2022-12-01T11:37:16.195Z,8.94
2022-12-01T11:40:28.247Z,8.73
2022-12-01T11:43:35.287Z,8.83
2022-12-01T11:46:50.171Z,8.66
2022-12-01T11:50:00.524Z,8.15
2022-12-01T11:53:04.199Z,8.45
2022-12-01T11:56:14.806Z,8.46
2022-12-01T11:59:25.969Z,8.56
2022-12-01T12:02:59.081Z,8.67
2022-12-01T12:06:39.472Z,8.63
2022-12-01T12:10:07.654Z,8.65
2022-12-01T12:13:16.325Z,8.91
2022-12-01T12:17:07.138Z,8.97
2022-12-01T12:20:47.075Z,9.20
2022-12-01T12:23:59.717Z,9.36
2022-12-01T12:27:27.383Z,9.53
2022-12-01T12:30:31.428Z,9.63
2022-12-01T12:34:14.433Z,9.52
2022-12-01T12:37:29.112Z,9.46
2022-12-01T12:40:51.017Z,9.21
2022-12-01T12:44:14.861Z,9.10
2022-12-01T12:47:29.151Z,9.05
2022-12-01T12:50:51.398Z,9.02
2022-12-01T12:54:04.509Z,8.84
2022-12-01T12:57:21.420Z,8.46
2022-12-01T13:00:26.877Z,8.08
2022-12-01T13:03:47.096Z,7.94
2022-12-01T13:07:01.426Z,7.60
2022-12-01T13:10:14.824Z,7.44
2022-12-01T13:13:37.577Z,7.19
2022-12-01T13:16:46.415Z,7.23
2022-12-01T13:19:49.736Z,6.91
2022-12-01T13:22:52.684Z,6.75
2022-12-01T13:25:58.043Z,6.58
2022-12-01T13:29:00.619Z,6.47
2022-12-01T13:32:04.904Z,6.43
2022-12-01T13:35:25.539Z,6.32
2022-12-01T13:38:30.294Z,6.17
2022-12-01T13:41:35.140Z,6.05
2022-12-01T13:44:40.179Z,5.97
2022-12-01T13:47:51.592Z,5.80
2022-12-01T13:50:55.849Z,5.67
2022-12-01T13:54:27.798Z,5.56
2022-12-01T13:57:32.638Z,5.41
2022-12-01T14:00:35.274Z,5.34
2022-12-01T14:03:40.300Z,5.24
2022-12-01T14:06:50.702Z,5.16
2022-12-01T14:09:58.056Z,5.11
2022-12-01T14:13:04.966Z,6.09
2022-12-01T14:16:08.344Z,6.27
2022-12-01T14:19:27.345Z,6.57
2022-12-01T14:22:33.224Z,6.60
2022-12-01T14:25:35.766Z,6.62
2022-12-01T14:29:00.726Z,6.08
2022-12-01T14:32:06.403Z,5.68
2022-12-01T14:35:11.791Z,5.33
2022-12-01T14:38:14.486Z,5.58
2022-12-01T14:41:24.093Z,5.16
2022-12-01T14:44:33.550Z,4.84
2022-12-01T14:47:42.699Z,4.57
2022-12-01T14:50:55.400Z,4.37
2022-12-01T14:53:59.450Z,4.07
2022-12-01T14:57:07.406Z,3.71
2022-12-01T15:00:20.858Z,3.82
2022-12-01T15:03:30.483Z,3.69
2022-12-01T15:06:35.972Z,3.62
2022-12-01T15:09:58.725Z,3.54
2022-12-01T15:13:20.778Z,3.33
2022-12-01T15:16:30.343Z,3.34
2022-12-01T15:19:37.577Z,3.29
2022-12-01T15:22:41.282Z,3.25
2022-12-01T15:25:45.830Z,3.19
2022-12-01T15:28:48.494Z,3.17
2022-12-01T15:31:54.798Z,3.15
2022-12-01T15:35:01.902Z,3.10
2022-12-01T15:38:05.088Z,3.08
2022-12-01T15:44:35.990Z,3.02
2022-12-01T15:47:41.155Z,2.98
2022-12-01T15:50:49.116Z,2.95
2022-12-01T15:53:54.702Z,2.94
2022-12-01T15:56:59.132Z,2.89
2022-12-01T16:00:01.879Z,2.90
2022-12-01T16:03:14.826Z,2.85
2022-12-01T16:06:18.117Z,2.81
2022-12-01T16:09:33.194Z,2.79
2022-12-01T16:12:37.108Z,2.76
2022-12-01T16:15:43.983Z,2.68
2022-12-01T16:19:02.325Z,2.72
2022-12-01T16:22:16.229Z,2.68
2022-12-01T16:25:24.939Z,2.66
2022-12-01T16:28:31.767Z,2.66
2022-12-01T16:31:40.318Z,2.67
2022-12-01T16:34:52.572Z,2.62
2022-12-01T16:37:55.464Z,2.59
2022-12-01T16:41:02.729Z,2.60
2022-12-01T16:44:27.688Z,2.64
2022-12-01T16:47:31.444Z,2.68
2022-12-01T16:50:34.503Z,2.61
2022-12-01T16:53:37.181Z,2.74
2022-12-01T16:56:40.252Z,2.71
2022-12-01T16:59:43.347Z,2.62
2022-12-01T17:02:46.225Z,2.52
2022-12-01T17:05:49.519Z,3.47
2022-12-01T17:08:52.368Z,3.09
2022-12-01T17:11:56.370Z,2.86
2022-12-01T17:14:59.234Z,2.72
2022-12-01T17:18:01.721Z,2.61
2022-12-01T17:21:08.059Z,2.50
2022-12-01T17:24:10.626Z,2.45
2022-12-01T17:27:13.746Z,2.41
2022-12-01T17:30:16.613Z,2.28
2022-12-01T17:33:19.478Z,2.32
2022-12-01T17:36:22.080Z,2.30
2022-12-01T17:39:25.176Z,2.17
2022-12-01T17:42:31.101Z,2.27
2022-12-01T17:45:33.912Z,2.23
2022-12-01T17:48:41.248Z,2.21
2022-12-01T17:51:44.168Z,2.16
2022-12-01T17:54:47.001Z,2.05
2022-12-01T17:57:50.081Z,2.08
2022-12-01T18:00:53.493Z,2.05
2022-12-01T18:03:58.200Z,2.05
2022-12-01T18:07:00.881Z,2.07
2022-12-01T18:10:04.093Z,2.06
2022-12-01T18:13:06.713Z,2.05
2022-12-01T18:16:18.691Z,2.02
2022-12-01T18:19:21.557Z,1.98
2022-12-01T18:22:24.507Z,1.97
2022-12-01T18:25:27.343Z,2.00
2022-12-01T18:28:30.431Z,2.00
2022-12-01T18:31:34.137Z,2.00
2022-12-01T18:34:37.354Z,1.98
2022-12-01T18:37:40.423Z,1.99
2022-12-01T18:40:43.472Z,2.00
2022-12-01T18:43:46.416Z,2.04
2022-12-01T18:46:49.687Z,2.08
2022-12-01T18:49:52.499Z,2.12
2022-12-01T18:52:55.506Z,2.15
2022-12-01T18:56:02.273Z,2.16
2022-12-01T18:59:07.314Z,2.17
2022-12-01T19:02:10.188Z,2.18
2022-12-01T19:05:13.865Z,2.19
2022-12-01T19:08:16.733Z,2.22
2022-12-01T19:11:20.223Z,2.10
2022-12-01T19:14:23.571Z,2.18
2022-12-01T19:17:26.722Z,2.18
2022-12-01T19:20:29.490Z,2.19
2022-12-01T19:23:32.839Z,2.28
2022-12-01T19:26:36.174Z,3.35
2022-12-01T19:29:39.208Z,3.00
2022-12-01T19:32:43.591Z,2.79
2022-12-01T19:35:46.661Z,2.59
2022-12-01T19:38:49.942Z,2.43
2022-12-01T19:41:53.088Z,2.23
2022-12-01T19:44:56.150Z,2.26
2022-12-01T19:47:59.466Z,2.22
2022-12-01T19:51:02.434Z,2.13
2022-12-01T19:54:08.473Z,2.09
2022-12-01T19:57:11.287Z,2.05
2022-12-01T20:00:14.713Z,2.00
2022-12-01T20:03:17.777Z,1.97
2022-12-01T20:06:23.162Z,1.89
2022-12-01T20:09:26.499Z,1.86
2022-12-01T20:12:29.318Z,1.82
2022-12-01T20:15:33.038Z,1.78
2022-12-01T20:18:36.523Z,1.75
2022-12-01T20:21:43.115Z,1.70
2022-12-01T20:24:46.208Z,1.70
2022-12-01T20:27:49.230Z,1.70
2022-12-01T20:30:52.220Z,1.69
2022-12-01T20:33:57.829Z,1.62
2022-12-01T20:37:00.832Z,1.50
2022-12-01T20:40:04.556Z,1.59
2022-12-01T20:43:07.016Z,1.49
2022-12-01T20:46:11.427Z,1.47
2022-12-01T20:49:15.862Z,1.49
2022-12-01T20:52:18.987Z,1.46
2022-12-01T20:55:22.018Z,1.41
2022-12-01T20:58:25.484Z,1.37
2022-12-01T21:01:28.738Z,1.40
2022-12-01T21:04:31.640Z,1.35
2022-12-01T21:07:34.431Z,1.32
2022-12-01T21:10:39.436Z,1.31
2022-12-01T21:13:42.337Z,1.31
2022-12-01T21:16:49.092Z,1.30
2022-12-01T21:20:01.513Z,1.27
2022-12-01T21:23:12.918Z,1.27
2022-12-01T21:26:19.116Z,1.28
2022-12-01T21:29:27.371Z,1.22
2022-12-01T21:32:31.998Z,1.21
2022-12-01T21:35:35.110Z,1.18
2022-12-01T21:38:37.821Z,1.21
2022-12-01T21:41:41.178Z,1.19
2022-12-01T21:44:43.928Z,1.16
2022-12-01T21:47:46.873Z,1.12
2022-12-01T21:50:56.950Z,1.04
2022-12-01T21:54:01.619Z,1.11
2022-12-01T21:57:24.064Z,1.08
2022-12-01T22:00:32.200Z,1.02
2022-12-01T22:03:39.950Z,0.96
2022-12-01T22:06:45.444Z,1.04
2022-12-01T22:09:48.495Z,1.10
2022-12-01T22:12:56.766Z,1.10
2022-12-01T22:15:59.655Z,1.07
2022-12-01T22:19:24.911Z,1.06
2022-12-01T22:22:29.341Z,1.12
2022-12-01T22:25:31.805Z,1.01
2022-12-01T22:28:34.947Z,1.13
2022-12-01T22:31:37.530Z,1.13
2022-12-01T22:34:45.096Z,1.11
2022-12-01T22:37:59.539Z,1.07
2022-12-01T22:41:05.437Z,1.08
2022-12-01T22:44:11.978Z,1.06
2022-12-01T22:47:15.077Z,0.91
2022-12-01T22:50:28.466Z,1.13
2022-12-01T22:53:31.577Z,1.14
2022-12-01T22:56:38.272Z,1.08
2022-12-01T22:59:43.096Z,1.07
2022-12-01T23:02:48.039Z,1.07
2022-12-01T23:05:55.577Z,1.09
2022-12-01T23:08:58.076Z,1.10
2022-12-01T23:12:10.135Z,1.05
2022-12-01T23:15:27.672Z,1.07
2022-12-01T23:18:34.095Z,1.11
2022-12-01T23:21:37.077Z,1.11
2022-12-01T23:24:40.174Z,1.08
2022-12-01T23:27:43.747Z,1.03
2022-12-01T23:30:48.181Z,1.04
2022-12-01T23:33:50.942Z,0.98
2022-12-01T23:36:53.755Z,0.96
2022-12-01T23:39:56.343Z,0.93
2022-12-01T23:43:12.348Z,0.82
2022-12-01T23:46:17.762Z,0.84
2022-12-01T23:49:23.041Z,0.83
2022-12-01T23:52:30.908Z,0.86
2022-12-01T23:55:34.407Z,0.89
2022-12-01T23:58:36.917Z,0.90
